sensor_id;sensor_type;location;lat;lon;timestamp;P1;durP1;ratioP1;P2;durP2;ratioP2
39370;SDS011;25099;51.946;4.838;2022-10-16T00:01:38;4.82;;;2.40;;
39370;SDS011;25099;51.946;4.838;2022-10-16T00:04:04;4.68;;;2.20;;
39370;SDS011;25099;51.946;4.838;2022-10-16T00:06:30;19.42;;;2.47;;
39370;SDS011;25099;51.946;4.838;2022-10-16T00:08:56;7.68;;;2.17;;
39370;SDS011;25099;51.946;4.838;2022-10-16T00:11:23;5.40;;;2.35;;
39370;SDS011;25099;51.946;4.838;2022-10-16T00:13:51;7.65;;;3.00;;
39370;SDS011;25099;51.946;4.838;2022-10-16T00:16:19;5.53;;;2.05;;
39370;SDS011;25099;51.946;4.838;2022-10-16T00:18:45;3.40;;;1.88;;
39370;SDS011;25099;51.946;4.838;2022-10-16T00:21:12;4.43;;;2.28;;
39370;SDS011;25099;51.946;4.838;2022-10-16T00:23:40;3.28;;;2.15;;
39370;SDS011;25099;51.946;4.838;2022-10-16T00:26:10;3.42;;;2.30;;
39370;SDS011;25099;51.946;4.838;2022-10-16T00:28:41;5.70;;;2.38;;
39370;SDS011;25099;51.946;4.838;2022-10-16T00:31:08;3.55;;;2.35;;
39370;SDS011;25099;51.946;4.838;2022-10-16T00:33:36;3.17;;;2.10;;
39370;SDS011;25099;51.946;4.838;2022-10-16T00:36:04;5.10;;;2.28;;
39370;SDS011;25099;51.946;4.838;2022-10-16T00:38:31;2.83;;;2.13;;
39370;SDS011;25099;51.946;4.838;2022-10-16T00:40:57;2.40;;;2.10;;
39370;SDS011;25099;51.946;4.838;2022-10-16T00:43:33;5.07;;;2.50;;
39370;SDS011;25099;51.946;4.838;2022-10-16T00:48:35;6.53;;;2.90;;
39370;SDS011;25099;51.946;4.838;2022-10-16T00:51:01;7.20;;;2.65;;
39370;SDS011;25099;51.946;4.838;2022-10-16T00:53:27;5.47;;;2.42;;
39370;SDS011;25099;51.946;4.838;2022-10-16T00:55:53;5.15;;;2.70;;
39370;SDS011;25099;51.946;4.838;2022-10-16T00:58:19;4.55;;;2.25;;
39370;SDS011;25099;51.946;4.838;2022-10-16T01:00:45;2.83;;;2.20;;
39370;SDS011;25099;51.946;4.838;2022-10-16T01:03:25;4.22;;;2.28;;
39370;SDS011;25099;51.946;4.838;2022-10-16T01:06:18;3.70;;;2.22;;
39370;SDS011;25099;51.946;4.838;2022-10-16T01:08:45;4.50;;;2.33;;
39370;SDS011;25099;51.946;4.838;2022-10-16T01:11:23;6.80;;;2.55;;
39370;SDS011;25099;51.946;4.838;2022-10-16T01:13:55;17.27;;;3.80;;
39370;SDS011;25099;51.946;4.838;2022-10-16T01:18:54;3.65;;;2.72;;
39370;SDS011;25099;51.946;4.838;2022-10-16T01:21:27;3.10;;;2.40;;
39370;SDS011;25099;51.946;4.838;2022-10-16T01:24:17;3.78;;;2.30;;
39370;SDS011;25099;51.946;4.838;2022-10-16T01:29:53;3.78;;;2.53;;
39370;SDS011;25099;51.946;4.838;2022-10-16T01:32:35;5.05;;;2.42;;
39370;SDS011;25099;51.946;4.838;2022-10-16T01:35:19;5.47;;;3.00;;
39370;SDS011;25099;51.946;4.838;2022-10-16T01:40:34;9.13;;;3.00;;
39370;SDS011;25099;51.946;4.838;2022-10-16T01:43:05;5.93;;;2.90;;
39370;SDS011;25099;51.946;4.838;2022-10-16T01:45:35;5.32;;;3.70;;
39370;SDS011;25099;51.946;4.838;2022-10-16T01:48:02;3.95;;;3.28;;
39370;SDS011;25099;51.946;4.838;2022-10-16T01:50:31;7.53;;;2.90;;
39370;SDS011;25099;51.946;4.838;2022-10-16T01:52:59;4.80;;;3.13;;
39370;SDS011;25099;51.946;4.838;2022-10-16T01:55:29;4.10;;;2.88;;
39370;SDS011;25099;51.946;4.838;2022-10-16T01:57:59;7.88;;;3.08;;
39370;SDS011;25099;51.946;4.838;2022-10-16T02:00:27;9.15;;;3.95;;
39370;SDS011;25099;51.946;4.838;2022-10-16T02:02:54;6.55;;;3.25;;
39370;SDS011;25099;51.946;4.838;2022-10-16T02:05:30;4.05;;;3.42;;
39370;SDS011;25099;51.946;4.838;2022-10-16T02:08:17;4.70;;;3.28;;
39370;SDS011;25099;51.946;4.838;2022-10-16T02:10:44;3.13;;;2.80;;
39370;SDS011;25099;51.946;4.838;2022-10-16T02:13:11;5.20;;;3.03;;
39370;SDS011;25099;51.946;4.838;2022-10-16T02:15:42;2.75;;;2.55;;
39370;SDS011;25099;51.946;4.838;2022-10-16T02:18:07;3.85;;;3.50;;
39370;SDS011;25099;51.946;4.838;2022-10-16T02:20:36;3.08;;;2.78;;
39370;SDS011;25099;51.946;4.838;2022-10-16T02:23:14;4.75;;;3.38;;
39370;SDS011;25099;51.946;4.838;2022-10-16T02:25:48;4.28;;;2.53;;
39370;SDS011;25099;51.946;4.838;2022-10-16T02:28:17;3.90;;;2.90;;
39370;SDS011;25099;51.946;4.838;2022-10-16T02:30:51;4.25;;;3.17;;
39370;SDS011;25099;51.946;4.838;2022-10-16T02:33:22;6.88;;;2.65;;
39370;SDS011;25099;51.946;4.838;2022-10-16T02:35:50;2.83;;;2.63;;
39370;SDS011;25099;51.946;4.838;2022-10-16T02:38:16;3.22;;;2.92;;
39370;SDS011;25099;51.946;4.838;2022-10-16T02:40:43;5.18;;;3.55;;
39370;SDS011;25099;51.946;4.838;2022-10-16T02:43:09;3.28;;;2.50;;
39370;SDS011;25099;51.946;4.838;2022-10-16T02:45:35;3.42;;;2.78;;
39370;SDS011;25099;51.946;4.838;2022-10-16T02:48:01;4.15;;;2.75;;
39370;SDS011;25099;51.946;4.838;2022-10-16T02:50:27;5.15;;;2.85;;
39370;SDS011;25099;51.946;4.838;2022-10-16T02:52:52;3.72;;;2.92;;
39370;SDS011;25099;51.946;4.838;2022-10-16T02:55:18;7.18;;;2.83;;
39370;SDS011;25099;51.946;4.838;2022-10-16T02:57:44;3.22;;;2.78;;
39370;SDS011;25099;51.946;4.838;2022-10-16T03:00:10;3.63;;;2.72;;
39370;SDS011;25099;51.946;4.838;2022-10-16T03:02:39;7.15;;;2.85;;
39370;SDS011;25099;51.946;4.838;2022-10-16T03:05:04;4.25;;;2.50;;
39370;SDS011;25099;51.946;4.838;2022-10-16T03:07:30;2.63;;;2.42;;
39370;SDS011;25099;51.946;4.838;2022-10-16T03:09:56;4.65;;;2.42;;
39370;SDS011;25099;51.946;4.838;2022-10-16T03:12:25;3.10;;;2.38;;
39370;SDS011;25099;51.946;4.838;2022-10-16T03:14:54;3.05;;;2.05;;
39370;SDS011;25099;51.946;4.838;2022-10-16T03:17:21;2.83;;;2.30;;
39370;SDS011;25099;51.946;4.838;2022-10-16T03:19:47;3.17;;;2.03;;
39370;SDS011;25099;51.946;4.838;2022-10-16T03:22:12;6.10;;;2.67;;
39370;SDS011;25099;51.946;4.838;2022-10-16T03:24:38;4.78;;;2.60;;
39370;SDS011;25099;51.946;4.838;2022-10-16T03:27:03;6.03;;;2.70;;
39370;SDS011;25099;51.946;4.838;2022-10-16T03:29:29;3.70;;;2.40;;
39370;SDS011;25099;51.946;4.838;2022-10-16T03:31:55;6.00;;;2.33;;
39370;SDS011;25099;51.946;4.838;2022-10-16T03:34:21;3.97;;;2.30;;
39370;SDS011;25099;51.946;4.838;2022-10-16T03:36:47;3.08;;;2.40;;
39370;SDS011;25099;51.946;4.838;2022-10-16T03:39:13;5.15;;;2.67;;
39370;SDS011;25099;51.946;4.838;2022-10-16T03:41:38;2.75;;;2.08;;
39370;SDS011;25099;51.946;4.838;2022-10-16T03:44:04;6.43;;;2.35;;
39370;SDS011;25099;51.946;4.838;2022-10-16T03:46:30;2.60;;;2.15;;
39370;SDS011;25099;51.946;4.838;2022-10-16T03:48:55;4.85;;;2.90;;
39370;SDS011;25099;51.946;4.838;2022-10-16T03:51:21;4.47;;;2.00;;
39370;SDS011;25099;51.946;4.838;2022-10-16T03:53:46;2.50;;;2.15;;
39370;SDS011;25099;51.946;4.838;2022-10-16T03:56:12;6.90;;;2.10;;
39370;SDS011;25099;51.946;4.838;2022-10-16T03:58:37;3.03;;;1.98;;
39370;SDS011;25099;51.946;4.838;2022-10-16T04:01:03;4.55;;;2.30;;
39370;SDS011;25099;51.946;4.838;2022-10-16T04:03:28;4.30;;;2.13;;
39370;SDS011;25099;51.946;4.838;2022-10-16T04:05:54;2.55;;;2.10;;
39370;SDS011;25099;51.946;4.838;2022-10-16T04:08:20;2.05;;;1.90;;
39370;SDS011;25099;51.946;4.838;2022-10-16T04:10:45;2.28;;;2.05;;
39370;SDS011;25099;51.946;4.838;2022-10-16T04:13:11;4.72;;;2.28;;
39370;SDS011;25099;51.946;4.838;2022-10-16T04:15:37;3.30;;;2.20;;
39370;SDS011;25099;51.946;4.838;2022-10-16T04:18:03;2.47;;;2.10;;
39370;SDS011;25099;51.946;4.838;2022-10-16T04:20:30;2.83;;;1.75;;
39370;SDS011;25099;51.946;4.838;2022-10-16T04:22:55;3.17;;;2.00;;
39370;SDS011;25099;51.946;4.838;2022-10-16T04:25:21;3.97;;;2.40;;
39370;SDS011;25099;51.946;4.838;2022-10-16T04:27:47;2.30;;;2.08;;
39370;SDS011;25099;51.946;4.838;2022-10-16T04:30:13;4.78;;;2.22;;
39370;SDS011;25099;51.946;4.838;2022-10-16T04:32:39;4.47;;;2.15;;
39370;SDS011;25099;51.946;4.838;2022-10-16T04:35:05;5.00;;;2.35;;
39370;SDS011;25099;51.946;4.838;2022-10-16T04:37:31;4.47;;;2.20;;
39370;SDS011;25099;51.946;4.838;2022-10-16T04:39:56;2.67;;;2.47;;
39370;SDS011;25099;51.946;4.838;2022-10-16T04:42:22;2.70;;;2.25;;
39370;SDS011;25099;51.946;4.838;2022-10-16T04:44:47;3.22;;;2.33;;
39370;SDS011;25099;51.946;4.838;2022-10-16T04:47:13;2.72;;;1.98;;
39370;SDS011;25099;51.946;4.838;2022-10-16T04:49:39;4.85;;;2.13;;
39370;SDS011;25099;51.946;4.838;2022-10-16T04:52:04;3.17;;;2.20;;
39370;SDS011;25099;51.946;4.838;2022-10-16T04:54:30;3.22;;;2.10;;
39370;SDS011;25099;51.946;4.838;2022-10-16T04:56:56;6.05;;;2.40;;
39370;SDS011;25099;51.946;4.838;2022-10-16T04:59:22;2.28;;;2.08;;
39370;SDS011;25099;51.946;4.838;2022-10-16T05:01:48;2.22;;;1.98;;
39370;SDS011;25099;51.946;4.838;2022-10-16T05:04:14;4.13;;;2.22;;
39370;SDS011;25099;51.946;4.838;2022-10-16T05:06:40;4.10;;;2.03;;
39370;SDS011;25099;51.946;4.838;2022-10-16T05:09:06;6.43;;;2.38;;
39370;SDS011;25099;51.946;4.838;2022-10-16T05:11:32;4.90;;;2.65;;
39370;SDS011;25099;51.946;4.838;2022-10-16T05:13:58;4.53;;;2.40;;
39370;SDS011;25099;51.946;4.838;2022-10-16T05:16:23;3.35;;;2.10;;
39370;SDS011;25099;51.946;4.838;2022-10-16T05:18:50;5.10;;;2.50;;
39370;SDS011;25099;51.946;4.838;2022-10-16T05:21:16;3.78;;;2.13;;
39370;SDS011;25099;51.946;4.838;2022-10-16T05:23:42;3.35;;;2.20;;
39370;SDS011;25099;51.946;4.838;2022-10-16T05:26:07;3.58;;;2.17;;
39370;SDS011;25099;51.946;4.838;2022-10-16T05:28:33;7.60;;;2.33;;
39370;SDS011;25099;51.946;4.838;2022-10-16T05:31:08;5.45;;;2.28;;
39370;SDS011;25099;51.946;4.838;2022-10-16T05:33:35;8.80;;;2.88;;
39370;SDS011;25099;51.946;4.838;2022-10-16T05:36:02;2.55;;;2.13;;
39370;SDS011;25099;51.946;4.838;2022-10-16T05:38:28;5.68;;;2.13;;
39370;SDS011;25099;51.946;4.838;2022-10-16T05:40:54;2.42;;;2.20;;
39370;SDS011;25099;51.946;4.838;2022-10-16T05:43:19;2.70;;;1.92;;
39370;SDS011;25099;51.946;4.838;2022-10-16T05:45:53;4.75;;;3.03;;
39370;SDS011;25099;51.946;4.838;2022-10-16T05:48:31;4.35;;;2.38;;
39370;SDS011;25099;51.946;4.838;2022-10-16T05:53:27;7.63;;;2.77;;
39370;SDS011;25099;51.946;4.838;2022-10-16T05:55:54;3.47;;;2.45;;
39370;SDS011;25099;51.946;4.838;2022-10-16T05:58:21;6.35;;;2.17;;
39370;SDS011;25099;51.946;4.838;2022-10-16T06:00:56;3.25;;;2.05;;
39370;SDS011;25099;51.946;4.838;2022-10-16T06:03:24;5.70;;;2.50;;
39370;SDS011;25099;51.946;4.838;2022-10-16T06:05:49;4.15;;;2.60;;
39370;SDS011;25099;51.946;4.838;2022-10-16T06:08:15;4.47;;;2.10;;
39370;SDS011;25099;51.946;4.838;2022-10-16T06:10:41;5.82;;;2.20;;
39370;SDS011;25099;51.946;4.838;2022-10-16T06:13:07;3.83;;;2.17;;
39370;SDS011;25099;51.946;4.838;2022-10-16T06:15:32;2.97;;;1.80;;
39370;SDS011;25099;51.946;4.838;2022-10-16T06:17:58;6.75;;;1.83;;
39370;SDS011;25099;51.946;4.838;2022-10-16T06:20:23;5.25;;;2.13;;
39370;SDS011;25099;51.946;4.838;2022-10-16T06:22:49;5.05;;;1.80;;
39370;SDS011;25099;51.946;4.838;2022-10-16T06:25:14;5.57;;;2.35;;
39370;SDS011;25099;51.946;4.838;2022-10-16T06:27:40;2.65;;;2.00;;
39370;SDS011;25099;51.946;4.838;2022-10-16T06:30:06;10.85;;;2.22;;
39370;SDS011;25099;51.946;4.838;2022-10-16T06:32:32;3.13;;;1.83;;
39370;SDS011;25099;51.946;4.838;2022-10-16T06:34:58;6.45;;;2.22;;
39370;SDS011;25099;51.946;4.838;2022-10-16T06:37:23;3.17;;;2.10;;
39370;SDS011;25099;51.946;4.838;2022-10-16T06:39:49;6.35;;;2.65;;
39370;SDS011;25099;51.946;4.838;2022-10-16T06:42:17;4.30;;;2.17;;
39370;SDS011;25099;51.946;4.838;2022-10-16T06:44:43;3.10;;;1.63;;
39370;SDS011;25099;51.946;4.838;2022-10-16T06:47:10;7.28;;;1.73;;
39370;SDS011;25099;51.946;4.838;2022-10-16T06:49:35;3.33;;;1.55;;
39370;SDS011;25099;51.946;4.838;2022-10-16T06:52:01;6.57;;;1.83;;
39370;SDS011;25099;51.946;4.838;2022-10-16T06:54:27;5.35;;;1.73;;
39370;SDS011;25099;51.946;4.838;2022-10-16T06:56:54;7.28;;;2.35;;
39370;SDS011;25099;51.946;4.838;2022-10-16T06:59:20;4.30;;;1.75;;
39370;SDS011;25099;51.946;4.838;2022-10-16T07:01:55;9.23;;;2.30;;
39370;SDS011;25099;51.946;4.838;2022-10-16T07:04:26;4.55;;;2.30;;
39370;SDS011;25099;51.946;4.838;2022-10-16T07:06:52;5.60;;;2.60;;
39370;SDS011;25099;51.946;4.838;2022-10-16T07:09:18;3.85;;;2.95;;
39370;SDS011;25099;51.946;4.838;2022-10-16T07:11:43;3.85;;;1.77;;
39370;SDS011;25099;51.946;4.838;2022-10-16T07:14:16;10.48;;;2.72;;
39370;SDS011;25099;51.946;4.838;2022-10-16T07:16:43;10.57;;;4.15;;
39370;SDS011;25099;51.946;4.838;2022-10-16T07:19:08;6.75;;;2.33;;
39370;SDS011;25099;51.946;4.838;2022-10-16T07:21:36;14.38;;;6.57;;
39370;SDS011;25099;51.946;4.838;2022-10-16T07:24:06;5.63;;;3.30;;
39370;SDS011;25099;51.946;4.838;2022-10-16T07:26:36;4.32;;;2.05;;
39370;SDS011;25099;51.946;4.838;2022-10-16T07:29:04;6.88;;;2.90;;
39370;SDS011;25099;51.946;4.838;2022-10-16T07:31:30;6.30;;;2.58;;
39370;SDS011;25099;51.946;4.838;2022-10-16T07:33:57;3.47;;;2.38;;
39370;SDS011;25099;51.946;4.838;2022-10-16T07:36:24;5.22;;;2.40;;
39370;SDS011;25099;51.946;4.838;2022-10-16T07:38:52;10.82;;;3.38;;
39370;SDS011;25099;51.946;4.838;2022-10-16T07:41:18;5.72;;;2.63;;
39370;SDS011;25099;51.946;4.838;2022-10-16T07:43:51;7.63;;;3.03;;
39370;SDS011;25099;51.946;4.838;2022-10-16T07:46:18;3.85;;;2.85;;
39370;SDS011;25099;51.946;4.838;2022-10-16T07:48:44;6.88;;;2.05;;
39370;SDS011;25099;51.946;4.838;2022-10-16T07:51:12;4.47;;;2.08;;
39370;SDS011;25099;51.946;4.838;2022-10-16T07:56:08;4.57;;;2.13;;
39370;SDS011;25099;51.946;4.838;2022-10-16T07:58:34;6.05;;;2.05;;
39370;SDS011;25099;51.946;4.838;2022-10-16T08:01:06;4.15;;;2.13;;
39370;SDS011;25099;51.946;4.838;2022-10-16T08:03:32;7.90;;;2.17;;
39370;SDS011;25099;51.946;4.838;2022-10-16T08:05:58;2.97;;;1.80;;
39370;SDS011;25099;51.946;4.838;2022-10-16T08:08:25;4.82;;;1.65;;
39370;SDS011;25099;51.946;4.838;2022-10-16T08:10:51;6.15;;;1.85;;
39370;SDS011;25099;51.946;4.838;2022-10-16T08:13:17;4.10;;;2.20;;
39370;SDS011;25099;51.946;4.838;2022-10-16T08:15:43;4.38;;;1.80;;
39370;SDS011;25099;51.946;4.838;2022-10-16T08:18:09;4.03;;;2.10;;
39370;SDS011;25099;51.946;4.838;2022-10-16T08:20:36;5.55;;;2.13;;
39370;SDS011;25099;51.946;4.838;2022-10-16T08:23:02;3.40;;;1.73;;
39370;SDS011;25099;51.946;4.838;2022-10-16T08:25:28;8.70;;;1.80;;
39370;SDS011;25099;51.946;4.838;2022-10-16T08:27:54;5.78;;;1.80;;
39370;SDS011;25099;51.946;4.838;2022-10-16T08:30:20;7.57;;;1.65;;
39370;SDS011;25099;51.946;4.838;2022-10-16T08:32:47;11.68;;;2.17;;
39370;SDS011;25099;51.946;4.838;2022-10-16T08:35:13;7.13;;;1.70;;
39370;SDS011;25099;51.946;4.838;2022-10-16T08:37:40;2.90;;;1.38;;
39370;SDS011;25099;51.946;4.838;2022-10-16T08:40:06;5.47;;;1.92;;
39370;SDS011;25099;51.946;4.838;2022-10-16T08:42:50;5.68;;;1.98;;
39370;SDS011;25099;51.946;4.838;2022-10-16T08:45:25;4.18;;;1.90;;
39370;SDS011;25099;51.946;4.838;2022-10-16T08:51:07;6.55;;;1.92;;
39370;SDS011;25099;51.946;4.838;2022-10-16T08:53:49;5.07;;;1.73;;
39370;SDS011;25099;51.946;4.838;2022-10-16T08:56:26;6.82;;;1.70;;
39370;SDS011;25099;51.946;4.838;2022-10-16T08:58:53;3.55;;;1.77;;
39370;SDS011;25099;51.946;4.838;2022-10-16T09:01:20;6.50;;;1.80;;
39370;SDS011;25099;51.946;4.838;2022-10-16T09:09:31;6.18;;;1.92;;
39370;SDS011;25099;51.946;4.838;2022-10-16T09:12:31;3.20;;;1.50;;
39370;SDS011;25099;51.946;4.838;2022-10-16T09:17:53;6.20;;;2.25;;
39370;SDS011;25099;51.946;4.838;2022-10-16T09:23:07;15.38;;;2.70;;
39370;SDS011;25099;51.946;4.838;2022-10-16T09:25:45;7.00;;;2.42;;
39370;SDS011;25099;51.946;4.838;2022-10-16T09:28:13;8.63;;;2.75;;
39370;SDS011;25099;51.946;4.838;2022-10-16T09:30:42;8.38;;;2.30;;
39370;SDS011;25099;51.946;4.838;2022-10-16T09:33:10;6.72;;;2.10;;
39370;SDS011;25099;51.946;4.838;2022-10-16T09:35:43;13.38;;;2.33;;
39370;SDS011;25099;51.946;4.838;2022-10-16T09:41:26;7.07;;;1.90;;
39370;SDS011;25099;51.946;4.838;2022-10-16T09:43:53;7.38;;;2.28;;
39370;SDS011;25099;51.946;4.838;2022-10-16T09:46:34;14.38;;;2.50;;
39370;SDS011;25099;51.946;4.838;2022-10-16T09:49:02;9.88;;;2.30;;
39370;SDS011;25099;51.946;4.838;2022-10-16T09:53:57;9.88;;;2.55;;
39370;SDS011;25099;51.946;4.838;2022-10-16T09:56:29;8.65;;;2.75;;
39370;SDS011;25099;51.946;4.838;2022-10-16T09:58:58;3.73;;;1.70;;
39370;SDS011;25099;51.946;4.838;2022-10-16T10:01:29;17.25;;;2.53;;
39370;SDS011;25099;51.946;4.838;2022-10-16T10:04:05;9.38;;;2.63;;
39370;SDS011;25099;51.946;4.838;2022-10-16T10:06:35;11.23;;;2.88;;
39370;SDS011;25099;51.946;4.838;2022-10-16T10:09:06;8.90;;;2.53;;
39370;SDS011;25099;51.946;4.838;2022-10-16T10:11:40;9.35;;;2.13;;
39370;SDS011;25099;51.946;4.838;2022-10-16T10:17:06;8.10;;;1.85;;
39370;SDS011;25099;51.946;4.838;2022-10-16T10:52:53;16.33;;;2.90;;
39370;SDS011;25099;51.946;4.838;2022-10-16T10:58:12;10.65;;;4.68;;
39370;SDS011;25099;51.946;4.838;2022-10-16T11:03:16;11.85;;;3.33;;
39370;SDS011;25099;51.946;4.838;2022-10-16T11:06:05;11.45;;;4.50;;
39370;SDS011;25099;51.946;4.838;2022-10-16T11:08:37;12.40;;;4.15;;
39370;SDS011;25099;51.946;4.838;2022-10-16T11:16:17;14.18;;;3.47;;
39370;SDS011;25099;51.946;4.838;2022-10-16T11:22:19;12.50;;;4.68;;
39370;SDS011;25099;51.946;4.838;2022-10-16T11:24:54;15.98;;;4.60;;
39370;SDS011;25099;51.946;4.838;2022-10-16T11:27:41;10.15;;;3.25;;
39370;SDS011;25099;51.946;4.838;2022-10-16T11:38:15;14.60;;;4.45;;
39370;SDS011;25099;51.946;4.838;2022-10-16T11:40:49;10.10;;;3.33;;
39370;SDS011;25099;51.946;4.838;2022-10-16T11:43:25;14.77;;;2.78;;
39370;SDS011;25099;51.946;4.838;2022-10-16T11:45:59;12.05;;;2.33;;
39370;SDS011;25099;51.946;4.838;2022-10-16T11:51:22;12.80;;;3.72;;
39370;SDS011;25099;51.946;4.838;2022-10-16T11:56:36;10.10;;;3.72;;
39370;SDS011;25099;51.946;4.838;2022-10-16T11:59:07;10.43;;;3.28;;
39370;SDS011;25099;51.946;4.838;2022-10-16T12:01:49;8.10;;;2.67;;
39370;SDS011;25099;51.946;4.838;2022-10-16T12:04:28;8.82;;;2.33;;
39370;SDS011;25099;51.946;4.838;2022-10-16T12:07:11;6.47;;;2.05;;
39370;SDS011;25099;51.946;4.838;2022-10-16T12:09:41;6.15;;;1.70;;
39370;SDS011;25099;51.946;4.838;2022-10-16T12:12:24;7.70;;;2.20;;
39370;SDS011;25099;51.946;4.838;2022-10-16T12:14:59;11.75;;;2.25;;
39370;SDS011;25099;51.946;4.838;2022-10-16T12:17:44;13.35;;;2.75;;
39370;SDS011;25099;51.946;4.838;2022-10-16T12:22:48;9.43;;;2.25;;
39370;SDS011;25099;51.946;4.838;2022-10-16T12:25:20;12.38;;;2.70;;
39370;SDS011;25099;51.946;4.838;2022-10-16T12:27:54;6.25;;;1.98;;
39370;SDS011;25099;51.946;4.838;2022-10-16T12:30:26;24.77;;;3.75;;
39370;SDS011;25099;51.946;4.838;2022-10-16T12:32:54;12.10;;;2.10;;
39370;SDS011;25099;51.946;4.838;2022-10-16T12:35:23;8.63;;;1.67;;
39370;SDS011;25099;51.946;4.838;2022-10-16T12:37:52;7.28;;;2.03;;
39370;SDS011;25099;51.946;4.838;2022-10-16T12:40:28;8.80;;;2.63;;
39370;SDS011;25099;51.946;4.838;2022-10-16T12:42:57;5.25;;;1.90;;
39370;SDS011;25099;51.946;4.838;2022-10-16T12:45:30;7.65;;;1.90;;
39370;SDS011;25099;51.946;4.838;2022-10-16T12:47:57;7.13;;;1.80;;
39370;SDS011;25099;51.946;4.838;2022-10-16T12:53:21;10.88;;;2.17;;
39370;SDS011;25099;51.946;4.838;2022-10-16T12:55:56;14.07;;;2.35;;
39370;SDS011;25099;51.946;4.838;2022-10-16T12:58:38;9.75;;;1.83;;
39370;SDS011;25099;51.946;4.838;2022-10-16T13:04:35;7.63;;;2.45;;
39370;SDS011;25099;51.946;4.838;2022-10-16T13:07:44;8.63;;;1.75;;
39370;SDS011;25099;51.946;4.838;2022-10-16T13:18:03;7.22;;;2.80;;
39370;SDS011;25099;51.946;4.838;2022-10-16T13:20:50;6.05;;;1.98;;
39370;SDS011;25099;51.946;4.838;2022-10-16T13:23:42;7.45;;;2.05;;
39370;SDS011;25099;51.946;4.838;2022-10-16T13:26:26;9.75;;;2.28;;
39370;SDS011;25099;51.946;4.838;2022-10-16T13:31:29;7.75;;;2.58;;
39370;SDS011;25099;51.946;4.838;2022-10-16T13:33:56;5.85;;;2.10;;
39370;SDS011;25099;51.946;4.838;2022-10-16T13:36:27;7.28;;;1.92;;
39370;SDS011;25099;51.946;4.838;2022-10-16T13:42:22;12.18;;;1.88;;
39370;SDS011;25099;51.946;4.838;2022-10-16T13:44:51;11.95;;;2.22;;
39370;SDS011;25099;51.946;4.838;2022-10-16T13:47:19;6.25;;;2.00;;
39370;SDS011;25099;51.946;4.838;2022-10-16T13:49:58;11.90;;;3.00;;
39370;SDS011;25099;51.946;4.838;2022-10-16T13:52:49;13.15;;;2.22;;
39370;SDS011;25099;51.946;4.838;2022-10-16T13:55:16;7.90;;;1.67;;
39370;SDS011;25099;51.946;4.838;2022-10-16T13:57:43;6.93;;;1.80;;
39370;SDS011;25099;51.946;4.838;2022-10-16T14:02:57;8.20;;;1.80;;
39370;SDS011;25099;51.946;4.838;2022-10-16T14:05:26;6.15;;;1.77;;
39370;SDS011;25099;51.946;4.838;2022-10-16T14:07:52;8.85;;;2.28;;
39370;SDS011;25099;51.946;4.838;2022-10-16T14:10:21;15.13;;;2.15;;
39370;SDS011;25099;51.946;4.838;2022-10-16T14:13:02;9.20;;;2.47;;
39370;SDS011;25099;51.946;4.838;2022-10-16T14:15:30;7.47;;;2.10;;
39370;SDS011;25099;51.946;4.838;2022-10-16T14:17:57;10.02;;;2.40;;
39370;SDS011;25099;51.946;4.838;2022-10-16T14:20:28;9.50;;;2.45;;
39370;SDS011;25099;51.946;4.838;2022-10-16T14:22:58;11.02;;;2.30;;
39370;SDS011;25099;51.946;4.838;2022-10-16T14:25:30;9.38;;;1.80;;
39370;SDS011;25099;51.946;4.838;2022-10-16T14:28:01;8.98;;;1.95;;
39370;SDS011;25099;51.946;4.838;2022-10-16T14:30:58;7.25;;;1.65;;
39370;SDS011;25099;51.946;4.838;2022-10-16T14:33:31;8.80;;;2.03;;
39370;SDS011;25099;51.946;4.838;2022-10-16T14:38:48;8.63;;;2.28;;
39370;SDS011;25099;51.946;4.838;2022-10-16T14:41:20;8.20;;;2.35;;
39370;SDS011;25099;51.946;4.838;2022-10-16T14:43:49;6.88;;;2.15;;
39370;SDS011;25099;51.946;4.838;2022-10-16T14:46:20;6.75;;;1.73;;
39370;SDS011;25099;51.946;4.838;2022-10-16T14:48:52;6.35;;;2.22;;
39370;SDS011;25099;51.946;4.838;2022-10-16T14:51:25;6.50;;;1.90;;
39370;SDS011;25099;51.946;4.838;2022-10-16T14:53:51;7.15;;;1.63;;
39370;SDS011;25099;51.946;4.838;2022-10-16T14:56:24;9.10;;;2.05;;
39370;SDS011;25099;51.946;4.838;2022-10-16T14:58:53;4.97;;;1.70;;
39370;SDS011;25099;51.946;4.838;2022-10-16T15:01:20;9.32;;;2.22;;
39370;SDS011;25099;51.946;4.838;2022-10-16T15:03:46;5.68;;;1.48;;
39370;SDS011;25099;51.946;4.838;2022-10-16T15:06:13;6.07;;;2.03;;
39370;SDS011;25099;51.946;4.838;2022-10-16T15:08:40;5.97;;;2.20;;
39370;SDS011;25099;51.946;4.838;2022-10-16T15:11:18;6.55;;;2.90;;
39370;SDS011;25099;51.946;4.838;2022-10-16T15:13:45;9.40;;;2.47;;
39370;SDS011;25099;51.946;4.838;2022-10-16T15:16:12;6.82;;;2.50;;
39370;SDS011;25099;51.946;4.838;2022-10-16T15:18:39;6.20;;;2.38;;
39370;SDS011;25099;51.946;4.838;2022-10-16T15:21:05;5.90;;;2.17;;
39370;SDS011;25099;51.946;4.838;2022-10-16T15:23:30;5.93;;;1.73;;
39370;SDS011;25099;51.946;4.838;2022-10-16T15:25:56;5.90;;;1.80;;
39370;SDS011;25099;51.946;4.838;2022-10-16T15:28:23;9.25;;;2.08;;
39370;SDS011;25099;51.946;4.838;2022-10-16T15:30:50;6.18;;;2.13;;
39370;SDS011;25099;51.946;4.838;2022-10-16T15:33:20;8.40;;;2.80;;
39370;SDS011;25099;51.946;4.838;2022-10-16T15:35:51;6.82;;;1.67;;
39370;SDS011;25099;51.946;4.838;2022-10-16T15:38:19;4.78;;;1.73;;
39370;SDS011;25099;51.946;4.838;2022-10-16T15:40:47;7.28;;;1.85;;
39370;SDS011;25099;51.946;4.838;2022-10-16T15:43:16;6.30;;;1.88;;
39370;SDS011;25099;51.946;4.838;2022-10-16T15:45:43;5.40;;;1.63;;
39370;SDS011;25099;51.946;4.838;2022-10-16T15:48:12;8.70;;;2.13;;
39370;SDS011;25099;51.946;4.838;2022-10-16T15:50:40;6.65;;;2.08;;
39370;SDS011;25099;51.946;4.838;2022-10-16T15:53:07;7.97;;;2.30;;
39370;SDS011;25099;51.946;4.838;2022-10-16T15:55:33;12.35;;;4.13;;
39370;SDS011;25099;51.946;4.838;2022-10-16T15:57:59;8.05;;;3.60;;
39370;SDS011;25099;51.946;4.838;2022-10-16T16:00:24;17.15;;;4.03;;
39370;SDS011;25099;51.946;4.838;2022-10-16T16:02:53;11.55;;;3.65;;
39370;SDS011;25099;51.946;4.838;2022-10-16T16:05:19;10.30;;;3.55;;
39370;SDS011;25099;51.946;4.838;2022-10-16T16:07:46;9.73;;;3.67;;
39370;SDS011;25099;51.946;4.838;2022-10-16T16:10:12;7.53;;;3.08;;
39370;SDS011;25099;51.946;4.838;2022-10-16T16:12:41;7.90;;;2.97;;
39370;SDS011;25099;51.946;4.838;2022-10-16T16:15:07;10.48;;;4.50;;
39370;SDS011;25099;51.946;4.838;2022-10-16T16:17:34;12.25;;;5.13;;
39370;SDS011;25099;51.946;4.838;2022-10-16T16:20:00;13.10;;;4.75;;
39370;SDS011;25099;51.946;4.838;2022-10-16T16:22:27;8.88;;;3.92;;
39370;SDS011;25099;51.946;4.838;2022-10-16T16:24:52;8.93;;;3.90;;
39370;SDS011;25099;51.946;4.838;2022-10-16T16:27:18;14.15;;;4.68;;
39370;SDS011;25099;51.946;4.838;2022-10-16T16:29:45;11.10;;;4.80;;
39370;SDS011;25099;51.946;4.838;2022-10-16T16:32:11;15.20;;;4.53;;
39370;SDS011;25099;51.946;4.838;2022-10-16T16:34:36;7.72;;;3.83;;
39370;SDS011;25099;51.946;4.838;2022-10-16T16:37:02;9.98;;;4.32;;
39370;SDS011;25099;51.946;4.838;2022-10-16T16:39:28;10.35;;;4.35;;
39370;SDS011;25099;51.946;4.838;2022-10-16T16:41:55;9.15;;;4.45;;
39370;SDS011;25099;51.946;4.838;2022-10-16T16:44:21;13.38;;;5.50;;
39370;SDS011;25099;51.946;4.838;2022-10-16T16:46:47;13.13;;;6.47;;
39370;SDS011;25099;51.946;4.838;2022-10-16T16:49:13;14.43;;;8.63;;
39370;SDS011;25099;51.946;4.838;2022-10-16T16:51:40;17.58;;;7.25;;
39370;SDS011;25099;51.946;4.838;2022-10-16T16:54:06;17.35;;;6.57;;
39370;SDS011;25099;51.946;4.838;2022-10-16T16:56:33;15.52;;;6.25;;
39370;SDS011;25099;51.946;4.838;2022-10-16T16:58:59;17.40;;;7.53;;
39370;SDS011;25099;51.946;4.838;2022-10-16T17:01:25;12.60;;;7.38;;
39370;SDS011;25099;51.946;4.838;2022-10-16T17:03:53;16.25;;;7.35;;
39370;SDS011;25099;51.946;4.838;2022-10-16T17:06:20;14.95;;;7.03;;